Time;durP1;ratioP1;P1;durP2;ratioP2;P2;SDS_P1;SDS_P2;PMS_P1;PMS_P2;Temp;Humidity;BMP_temperature;BMP_pressure;BME280_temperature;BME280_humidity;BME280_pressure;Samples;Min_cycle;Max_cycle;Signal;HPM_P1;HPM_P2
2021/04/27 00:01:26;;;;;;;13.85;8.23;;;22.70;27.40;;;;;;6197851;28;80383;-61
2021/04/27 00:04:27;;;;;;;16.25;7.68;;;22.70;27.40;;;;;;6225477;28;81297;-62
2021/04/27 00:07:28;;;;;;;12.65;6.95;;;22.70;27.40;;;;;;6222949;28;80483;-62
2021/04/27 00:10:28;;;;;;;13.90;7.70;;;22.70;27.40;;;;;;6228474;27;80326;-62
2021/04/27 00:13:29;;;;;;;11.98;6.80;;;22.70;27.30;;;;;;6217030;28;80736;-62
2021/04/27 00:16:29;;;;;;;13.63;7.07;;;22.70;27.50;;;;;;6228312;28;80357;-63
2021/04/27 00:19:30;;;;;;;12.82;7.05;;;22.70;27.10;;;;;;6226285;28;81913;-62
2021/04/27 00:22:30;;;;;;;12.48;7.13;;;22.70;27.60;;;;;;6228519;28;80664;-62
2021/04/27 00:25:31;;;;;;;11.65;7.18;;;22.60;27.60;;;;;;6222477;28;80397;-63
2021/04/27 00:28:31;;;;;;;13.40;7.60;;;22.70;27.40;;;;;;6209987;28;80379;-61
2021/04/27 00:31:32;;;;;;;12.75;6.53;;;22.70;27.10;;;;;;6226651;28;81478;-63
2021/04/27 00:34:32;;;;;;;14.93;7.25;;;22.60;27.20;;;;;;6209176;28;81953;-64
2021/04/27 00:37:33;;;;;;;13.32;7.05;;;22.70;27.20;;;;;;6226988;28;80734;-63
2021/04/27 00:40:34;;;;;;;13.90;7.30;;;22.70;27.50;;;;;;6226444;28;81867;-63
2021/04/27 00:43:34;;;;;;;13.00;7.22;;;22.60;27.60;;;;;;6228171;28;80468;-63
2021/04/27 00:46:35;;;;;;;13.70;6.65;;;22.60;27.60;;;;;;6209214;28;83885;-63
2021/04/27 00:49:35;;;;;;;11.98;6.93;;;22.60;27.40;;;;;;6228396;28;80392;-63
2021/04/27 00:52:36;;;;;;;14.82;7.47;;;22.70;27.50;;;;;;6208003;28;80629;-63
2021/04/27 00:55:36;;;;;;;12.98;7.00;;;22.60;27.70;;;;;;6208735;28;83179;-63
2021/04/27 00:58:37;;;;;;;11.40;6.78;;;22.60;27.40;;;;;;6222141;28;81318;-63
2021/04/27 01:01:38;;;;;;;13.63;7.55;;;22.60;26.90;;;;;;6227791;28;80716;-59
2021/04/27 01:04:38;;;;;;;13.73;7.45;;;22.60;27.70;;;;;;6212837;28;83259;-63
2021/04/27 01:07:39;;;;;;;18.02;9.20;;;22.60;27.50;;;;;;6215433;28;83618;-63
2021/04/27 01:10:40;;;;;;;12.43;7.85;;;22.60;27.40;;;;;;6212604;28;83127;-63
2021/04/27 01:13:40;;;;;;;17.40;8.88;;;22.60;27.60;;;;;;6229242;28;83837;-64
2021/04/27 01:16:41;;;;;;;16.67;8.80;;;22.60;27.50;;;;;;6233261;28;81335;-63
2021/04/27 01:19:44;;;;;;;16.95;8.55;;;22.60;27.60;;;;;;6209800;28;83280;-63
2021/04/27 01:22:44;;;;;;;17.52;8.80;;;22.60;27.50;;;;;;6216090;28;81829;-63
2021/04/27 01:25:45;;;;;;;19.23;9.18;;;22.60;27.40;;;;;;6213642;28;83883;-63
2021/04/27 01:28:46;;;;;;;20.92;9.75;;;22.60;27.20;;;;;;6231312;28;80357;-63
2021/04/27 01:31:46;;;;;;;16.58;8.88;;;22.60;27.50;;;;;;6231833;28;80728;-64
2021/04/27 01:34:47;;;;;;;19.17;9.32;;;22.60;27.20;;;;;;6220390;28;82348;-63
2021/04/27 01:38:14;;;;;;;18.20;9.10;;;22.60;27.30;;;;;;6229309;28;81356;-63
2021/04/27 01:41:15;;;;;;;17.77;9.82;;;22.60;27.40;;;;;;6229857;28;83459;-62
2021/04/27 01:44:17;;;;;;;22.08;10.52;;;22.50;27.40;;;;;;6229627;28;82006;-63
2021/04/27 01:47:17;;;;;;;19.45;10.13;;;22.60;27.20;;;;;;6195223;28;83120;-63
2021/04/27 01:50:18;;;;;;;16.48;9.20;;;22.60;27.80;;;;;;6185952;28;83503;-63
2021/04/27 01:53:42;;;;;;;16.45;9.45;;;22.60;27.30;;;;;;6196475;28;82480;-63
2021/04/27 01:56:42;;;;;;;20.30;11.00;;;22.60;26.90;;;;;;6226367;28;80290;-63
2021/04/27 01:59:43;;;;;;;22.70;10.50;;;22.60;26.90;;;;;;6209200;28;83131;-63
2021/04/27 02:02:49;;;;;;;16.67;9.77;;;22.60;26.60;;;;;;6207494;28;84517;-63
2021/04/27 02:06:19;;;;;;;19.50;10.65;;;22.60;26.90;;;;;;6226620;28;82418;-63
2021/04/27 02:09:20;;;;;;;17.17;9.90;;;22.60;27.10;;;;;;6209262;28;83274;-63
2021/04/27 02:12:27;;;;;;;18.38;10.18;;;22.60;27.30;;;;;;6210079;28;83149;-63
2021/04/27 02:15:28;;;;;;;21.75;10.23;;;22.60;27.10;;;;;;6209444;28;83346;-62
2021/04/27 02:18:29;;;;;;;17.35;9.75;;;22.50;26.80;;;;;;6188913;28;85138;-62
2021/04/27 02:21:30;;;;;;;15.10;8.77;;;22.50;27.30;;;;;;6218352;28;85588;-62
2021/04/27 02:25:00;;;;;;;20.58;9.93;;;22.50;27.10;;;;;;6204946;28;82825;-63
2021/04/27 02:28:01;;;;;;;21.17;9.98;;;22.60;27.10;;;;;;6205460;28;82673;-62
2021/04/27 02:31:01;;;;;;;18.30;9.75;;;22.50;27.00;;;;;;6221324;28;82894;-63
2021/04/27 02:34:03;;;;;;;19.63;9.95;;;22.50;27.00;;;;;;6228199;28;85073;-64
2021/04/27 02:37:04;;;;;;;17.63;9.38;;;22.50;27.00;;;;;;6215237;27;83237;-63
2021/04/27 02:40:09;;;;;;;18.50;9.50;;;22.50;26.90;;;;;;6228331;28;81518;-64
2021/04/27 02:43:09;;;;;;;19.98;9.57;;;22.50;27.20;;;;;;6212266;28;83196;-63
2021/04/27 02:46:16;;;;;;;21.65;10.10;;;22.50;27.00;;;;;;6222746;28;81655;-64
2021/04/27 02:49:25;;;;;;;18.60;9.07;;;22.50;26.90;;;;;;6195260;28;87691;-63
2021/04/27 02:52:36;;;;;;;18.05;9.82;;;22.50;26.90;;;;;;6214015;28;85547;-63
2021/04/27 02:55:39;;;;;;;17.60;9.45;;;22.50;26.80;;;;;;6212337;28;83443;-64
2021/04/27 02:58:40;;;;;;;18.60;8.75;;;22.50;26.90;;;;;;6212956;28;83254;-64
2021/04/27 03:01:41;;;;;;;15.57;8.63;;;22.50;26.90;;;;;;6213403;28;82128;-65
2021/04/27 03:04:45;;;;;;;22.35;9.85;;;22.50;26.60;;;;;;6212397;28;90986;-63
2021/04/27 03:07:52;;;;;;;17.33;8.93;;;22.50;26.70;;;;;;6209858;28;83649;-63
2021/04/27 03:10:54;;;;;;;16.58;9.15;;;22.50;26.70;;;;;;6212979;28;83356;-64
2021/04/27 03:13:56;;;;;;;16.10;9.50;;;22.50;27.40;;;;;;6209373;28;83303;-64
2021/04/27 03:16:57;;;;;;;16.67;9.13;;;22.50;26.90;;;;;;6204546;28;80613;-64
2021/04/27 03:19:57;;;;;;;20.35;9.63;;;22.50;26.90;;;;;;6211246;28;83259;-65
2021/04/27 03:23:06;;;;;;;19.52;9.45;;;22.50;26.60;;;;;;6213443;28;83570;-64
2021/04/27 03:26:06;;;;;;;16.20;9.27;;;22.50;26.60;;;;;;6228611;28;81600;-65
2021/04/27 03:29:22;;;;;;;20.30;9.53;;;22.50;26.20;;;;;;6211541;28;83206;-65
2021/04/27 03:32:31;;;;;;;17.88;9.10;;;22.50;26.20;;;;;;6222184;28;83355;-65
2021/04/27 03:35:31;;;;;;;21.50;10.55;;;22.50;26.30;;;;;;6227798;28;80435;-65
2021/04/27 03:38:33;;;;;;;16.70;8.68;;;22.50;26.30;;;;;;6206415;28;88416;-64
2021/04/27 03:41:34;;;;;;;18.95;8.90;;;22.50;26.10;;;;;;6205251;28;85187;-63
2021/04/27 03:44:35;;;;;;;15.95;8.85;;;22.50;25.70;;;;;;6202055;28;82809;-64
2021/04/27 03:47:36;;;;;;;14.20;8.13;;;22.50;25.70;;;;;;6212263;28;80524;-63
2021/04/27 03:50:37;;;;;;;19.35;9.98;;;22.50;25.70;;;;;;6206147;28;83804;-63
2021/04/27 03:53:58;;;;;;;20.70;11.02;;;22.50;25.60;;;;;;6172040;28;83238;-63
2021/04/27 03:57:03;;;;;;;23.70;9.77;;;22.60;25.60;;;;;;6221670;28;84317;-64
2021/04/27 04:00:11;;;;;;;20.55;10.00;;;22.60;25.60;;;;;;6121345;28;84022;-62
2021/04/27 04:03:15;;;;;;;23.63;11.75;;;22.60;25.60;;;;;;6226112;28;82772;-61
2021/04/27 04:06:16;;;;;;;20.40;10.55;;;22.70;25.70;;;;;;6223830;28;85887;-64
2021/04/27 04:09:35;;;;;;;24.67;11.45;;;22.70;25.80;;;;;;6209660;28;83346;-63
2021/04/27 04:12:57;;;;;;;23.25;11.32;;;22.70;26.00;;;;;;6227961;28;85625;-64
2021/04/27 04:15:58;;;;;;;21.88;10.80;;;22.70;26.00;;;;;;6207351;28;85773;-64
2021/04/27 04:18:58;;;;;;;21.15;11.80;;;22.60;26.00;;;;;;6203266;28;85779;-64
2021/04/27 04:21:59;;;;;;;24.92;11.40;;;22.70;26.30;;;;;;6224307;28;84209;-65
2021/04/27 04:25:00;;;;;;;27.48;10.90;;;22.70;26.40;;;;;;6202213;28;85534;-63
2021/04/27 04:28:00;;;;;;;23.70;11.13;;;22.80;26.70;;;;;;6220028;28;84099;-64
2021/04/27 04:31:02;;;;;;;20.15;10.40;;;22.70;26.50;;;;;;6222823;28;83920;-63
2021/04/27 04:34:21;;;;;;;22.05;11.18;;;22.80;26.80;;;;;;6229622;28;82913;-63
2021/04/27 04:37:57;;;;;;;22.75;10.65;;;22.80;26.70;;;;;;6176466;28;83588;-63
2021/04/27 04:41:20;;;;;;;20.92;10.38;;;22.80;26.80;;;;;;6206324;28;84485;-64
2021/04/27 04:44:39;;;;;;;23.25;10.95;;;22.80;27.10;;;;;;6228709;28;87379;-64
2021/04/27 04:47:58;;;;;;;22.77;10.60;;;22.80;27.10;;;;;;6217379;28;85877;-64
2021/04/27 04:51:17;;;;;;;21.20;10.98;;;22.80;26.90;;;;;;6226098;28;83057;-64
2021/04/27 04:54:26;;;;;;;27.15;11.98;;;22.80;26.80;;;;;;6198371;28;84281;-64
2021/04/27 04:57:27;;;;;;;28.20;12.13;;;22.80;26.70;;;;;;6216551;28;85677;-65
2021/04/27 05:00:27;;;;;;;25.55;11.73;;;22.80;26.80;;;;;;6241384;28;82984;-65
2021/04/27 05:03:57;;;;;;;25.00;10.68;;;22.80;27.10;;;;;;6240093;27;83706;-64
2021/04/27 05:07:16;;;;;;;25.77;12.05;;;22.90;27.70;;;;;;6236472;28;83805;-64
2021/04/27 05:10:35;;;;;;;24.02;11.07;;;22.90;28.00;;;;;;6225054;28;83478;-66
2021/04/27 05:13:58;;;;;;;29.45;11.48;;;22.90;28.70;;;;;;6210203;28;90900;-66
2021/04/27 05:16:59;;;;;;;28.98;11.85;;;22.90;28.60;;;;;;6231872;28;83146;-66
2021/04/27 05:20:00;;;;;;;21.50;11.73;;;22.90;28.80;;;;;;6231847;28;83206;-65
2021/04/27 05:23:05;;;;;;;25.52;11.18;;;22.90;29.00;;;;;;6201588;28;85141;-66
2021/04/27 05:26:16;;;;;;;25.10;11.07;;;23.00;29.50;;;;;;6226781;28;84182;-65
2021/04/27 05:29:17;;;;;;;27.52;11.05;;;23.00;29.50;;;;;;6221210;28;83376;-65
2021/04/27 05:32:17;;;;;;;25.05;11.00;;;23.00;29.60;;;;;;6227576;28;84094;-65
2021/04/27 05:35:18;;;;;;;23.35;10.60;;;23.00;29.40;;;;;;6205607;28;83996;-65
2021/04/27 05:38:18;;;;;;;19.95;9.32;;;23.00;29.10;;;;;;6228324;28;89643;-65
2021/04/27 05:41:19;;;;;;;26.15;9.63;;;23.00;29.40;;;;;;6247402;28;82981;-66
2021/04/27 05:44:19;;;;;;;20.83;10.20;;;23.00;29.50;;;;;;6230856;28;80311;-64
2021/04/27 05:47:20;;;;;;;26.10;10.27;;;22.90;29.60;;;;;;6226805;28;83863;-64
2021/04/27 05:50:21;;;;;;;22.05;10.63;;;22.90;29.70;;;;;;6219479;28;83188;-64
2021/04/27 05:53:21;;;;;;;19.80;9.45;;;22.90;29.80;;;;;;6226883;28;85019;-64
2021/04/27 05:56:22;;;;;;;20.23;9.43;;;23.00;29.70;;;;;;6234797;28;83919;-64
2021/04/27 05:59:22;;;;;;;18.33;9.05;;;23.00;29.70;;;;;;6229419;28;81138;-64
2021/04/27 06:02:23;;;;;;;23.50;8.60;;;23.00;28.80;;;;;;6235438;28;80750;-64
2021/04/27 06:05:23;;;;;;;21.73;9.65;;;23.00;28.20;;;;;;6228966;28;80952;-66
2021/04/27 06:08:24;;;;;;;25.10;10.68;;;23.00;26.30;;;;;;6236094;28;80320;-63
2021/04/27 06:11:24;;;;;;;20.73;9.32;;;22.90;26.20;;;;;;6235212;28;83147;-63
2021/04/27 06:14:25;;;;;;;15.38;8.82;;;22.90;26.40;;;;;;6232691;28;81792;-63
2021/04/27 06:17:25;;;;;;;17.80;9.55;;;22.90;26.90;;;;;;6234075;28;82834;-63
2021/04/27 06:20:26;;;;;;;18.50;8.98;;;22.90;27.00;;;;;;6231078;28;80501;-64
2021/04/27 06:23:26;;;;;;;14.60;8.25;;;22.90;27.10;;;;;;6234574;28;81086;-64
2021/04/27 06:26:27;;;;;;;16.55;8.73;;;22.80;27.10;;;;;;6230057;28;82354;-65
2021/04/27 06:29:27;;;;;;;16.40;8.38;;;22.90;27.30;;;;;;6225384;28;81582;-62
2021/04/27 06:32:28;;;;;;;16.75;8.75;;;22.90;26.90;;;;;;6226579;28;80635;-63
2021/04/27 06:35:28;;;;;;;17.08;8.90;;;22.90;27.10;;;;;;6224315;28;80410;-63
2021/04/27 06:38:29;;;;;;;18.73;8.70;;;22.80;26.70;;;;;;6231377;28;81291;-63
2021/04/27 06:41:32;;;;;;;19.08;9.48;;;22.80;27.50;;;;;;6228355;28;80571;-64
2021/04/27 06:44:32;;;;;;;16.25;8.70;;;22.90;27.40;;;;;;6200860;28;83797;-64
2021/04/27 06:47:33;;;;;;;16.33;8.52;;;22.80;27.50;;;;;;6232826;28;81223;-63
2021/04/27 06:50:33;;;;;;;18.85;8.32;;;22.90;27.50;;;;;;6215905;28;81782;-66
2021/04/27 06:53:34;;;;;;;16.50;7.30;;;22.90;27.70;;;;;;6223152;28;80379;-66
2021/04/27 06:56:35;;;;;;;19.08;8.98;;;22.90;27.60;;;;;;6216880;28;80388;-65
2021/04/27 06:59:35;;;;;;;15.43;8.43;;;22.90;28.00;;;;;;6234060;28;80350;-65
2021/04/27 07:02:36;;;;;;;16.10;7.93;;;22.80;27.90;;;;;;6235595;28;80475;-65
2021/04/27 07:05:37;;;;;;;14.52;7.43;;;22.90;27.90;;;;;;6229085;28;80538;-66
2021/04/27 07:08:37;;;;;;;18.90;7.88;;;22.90;27.70;;;;;;6231424;28;81258;-65
2021/04/27 07:11:38;;;;;;;14.82;8.68;;;22.90;27.80;;;;;;6234019;28;80469;-66
2021/04/27 07:14:38;;;;;;;18.35;7.90;;;22.90;27.90;;;;;;6228737;28;81665;-63
2021/04/27 07:17:39;;;;;;;12.55;7.75;;;22.90;27.70;;;;;;6231342;28;80705;-65
2021/04/27 07:20:39;;;;;;;16.95;8.15;;;22.80;27.80;;;;;;6228170;28;81179;-66
2021/04/27 07:23:40;;;;;;;14.50;7.18;;;22.90;27.80;;;;;;6231274;28;81700;-65
2021/04/27 07:26:41;;;;;;;18.05;8.75;;;22.90;28.00;;;;;;6219721;28;83397;-65
2021/04/27 07:29:42;;;;;;;16.10;8.68;;;22.90;28.20;;;;;;6210637;28;81804;-65
2021/04/27 07:32:42;;;;;;;17.35;7.28;;;22.90;27.80;;;;;;6223767;28;83187;-65
2021/04/27 07:35:43;;;;;;;15.82;8.40;;;22.90;27.80;;;;;;6228315;28;81338;-66
2021/04/27 07:38:43;;;;;;;13.98;7.05;;;23.00;27.80;;;;;;6230824;28;81289;-66
2021/04/27 07:41:44;;;;;;;12.10;7.28;;;22.90;27.50;;;;;;6224307;28;81163;-64
2021/04/27 07:44:45;;;;;;;14.00;7.50;;;22.90;27.70;;;;;;6232117;28;80680;-65
2021/04/27 07:47:45;;;;;;;14.82;7.82;;;22.90;27.70;;;;;;6226888;28;81193;-63
2021/04/27 07:50:46;;;;;;;14.50;6.68;;;22.90;27.90;;;;;;6229742;28;81346;-65
2021/04/27 07:53:46;;;;;;;18.08;8.23;;;22.90;27.80;;;;;;6233585;28;82228;-65
2021/04/27 07:56:47;;;;;;;11.65;6.72;;;22.90;27.80;;;;;;6226991;28;81681;-65
2021/04/27 07:59:47;;;;;;;13.95;6.80;;;22.90;27.80;;;;;;6228441;28;82275;-64
2021/04/27 08:02:49;;;;;;;12.95;6.38;;;23.00;27.90;;;;;;6239510;28;80515;-63
2021/04/27 08:05:50;;;;;;;14.32;7.35;;;23.00;27.80;;;;;;6222885;28;80482;-63
2021/04/27 08:08:51;;;;;;;11.63;6.60;;;23.00;28.30;;;;;;6230828;28;81273;-63
2021/04/27 08:11:53;;;;;;;12.02;6.72;;;23.10;28.20;;;;;;6236868;28;80681;-63
2021/04/27 08:14:54;;;;;;;12.30;5.78;;;23.10;28.10;;;;;;6240586;28;80838;-64
2021/04/27 08:17:54;;;;;;;13.02;6.90;;;23.10;28.00;;;;;;6239412;28;80582;-64
2021/04/27 08:20:55;;;;;;;13.80;6.78;;;23.20;28.00;;;;;;6236041;28;80381;-63
2021/04/27 08:23:55;;;;;;;11.35;6.30;;;23.20;28.00;;;;;;6241222;28;80722;-63
2021/04/27 08:26:56;;;;;;;12.05;6.45;;;23.20;28.00;;;;;;6233698;28;84160;-63
2021/04/27 08:29:56;;;;;;;12.13;6.50;;;23.20;27.90;;;;;;6215405;28;83026;-63
2021/04/27 08:32:57;;;;;;;13.32;6.70;;;23.20;28.00;;;;;;6234412;28;81815;-63
2021/04/27 08:35:58;;;;;;;16.92;6.35;;;23.30;28.20;;;;;;6213472;28;82984;-63
2021/04/27 08:38:58;;;;;;;12.27;6.68;;;23.30;28.20;;;;;;6233789;28;80514;-62
2021/04/27 08:41:59;;;;;;;23.80;7.00;;;23.30;28.10;;;;;;6216104;28;81449;-63
2021/04/27 08:45:00;;;;;;;13.15;6.38;;;23.30;28.10;;;;;;6236058;28;80805;-64
2021/04/27 08:48:00;;;;;;;12.48;5.53;;;23.30;28.00;;;;;;6236136;28;80496;-64
2021/04/27 08:51:02;;;;;;;16.83;7.75;;;23.30;28.00;;;;;;6220414;28;83550;-63
2021/04/27 08:54:02;;;;;;;17.80;8.60;;;23.40;28.10;;;;;;6216026;27;80367;-63
2021/04/27 08:57:03;;;;;;;28.73;9.55;;;23.40;28.20;;;;;;6213688;28;81722;-62
2021/04/27 09:00:03;;;;;;;24.08;9.65;;;23.40;28.40;;;;;;6241702;28;80526;-62
2021/04/27 09:03:04;;;;;;;20.90;9.57;;;23.40;28.30;;;;;;6229046;28;80567;-62
2021/04/27 09:06:04;;;;;;;22.27;7.63;;;23.40;28.10;;;;;;6235130;28;80627;-60
2021/04/27 09:09:05;;;;;;;16.40;7.00;;;23.40;26.60;;;;;;6232054;28;81101;-62
2021/04/27 09:12:05;;;;;;;16.70;6.93;;;23.30;25.90;;;;;;6236492;28;80671;-62
2021/04/27 09:15:07;;;;;;;17.08;7.00;;;23.30;25.40;;;;;;6226778;28;83061;-61
2021/04/27 09:18:07;;;;;;;12.38;6.10;;;23.30;26.10;;;;;;6245262;28;80544;-63
2021/04/27 09:21:08;;;;;;;15.88;6.20;;;23.20;26.10;;;;;;6232548;28;80836;-64
2021/04/27 09:24:08;;;;;;;16.15;5.90;;;23.20;25.00;;;;;;6235529;28;80523;-61
2021/04/27 09:27:09;;;;;;;13.73;6.18;;;23.10;25.40;;;;;;6222529;28;83840;-63
2021/04/27 09:30:10;;;;;;;13.68;5.63;;;23.20;26.30;;;;;;6235772;28;82432;-62
2021/04/27 09:33:10;;;;;;;11.85;5.57;;;23.10;25.40;;;;;;6225423;28;80465;-62
2021/04/27 09:36:11;;;;;;;13.82;6.32;;;23.10;26.60;;;;;;6198649;28;80949;-62
2021/04/27 09:39:12;;;;;;;8.43;4.97;;;23.10;25.60;;;;;;6188107;28;84440;-63
2021/04/27 09:42:12;;;;;;;9.07;5.07;;;23.10;26.20;;;;;;6184800;28;80775;-63
2021/04/27 09:45:13;;;;;;;12.55;5.80;;;23.10;26.20;;;;;;6189302;28;80244;-62
2021/04/27 09:48:13;;;;;;;10.57;5.43;;;23.10;25.90;;;;;;6193095;28;80577;-62
2021/04/27 09:51:14;;;;;;;12.88;5.50;;;23.10;26.00;;;;;;6173045;28;81019;-65
2021/04/27 09:54:15;;;;;;;12.15;4.57;;;23.00;26.20;;;;;;6153251;28;82085;-63
2021/04/27 09:57:15;;;;;;;10.85;4.82;;;23.00;26.60;;;;;;6182557;28;80776;-65
2021/04/27 10:00:16;;;;;;;10.27;4.93;;;23.00;26.60;;;;;;6177793;28;80649;-63
2021/04/27 10:03:16;;;;;;;10.02;3.88;;;23.00;26.50;;;;;;6179241;28;80347;-64
2021/04/27 10:06:17;;;;;;;8.15;4.78;;;23.00;26.50;;;;;;6181245;28;80367;-63
2021/04/27 10:09:17;;;;;;;6.80;4.10;;;23.10;27.70;;;;;;6174658;28;83270;-63
2021/04/27 10:12:18;;;;;;;10.48;5.25;;;23.10;27.60;;;;;;6174133;28;80463;-63
2021/04/27 10:15:18;;;;;;;7.20;4.32;;;23.10;27.20;;;;;;6181656;28;80664;-63
2021/04/27 10:18:19;;;;;;;7.90;4.55;;;23.20;27.50;;;;;;6177751;28;80424;-63
2021/04/27 10:21:19;;;;;;;10.50;4.78;;;23.20;27.20;;;;;;6181963;28;80269;-63
2021/04/27 10:24:23;;;;;;;14.02;5.20;;;23.20;27.30;;;;;;6188651;28;80529;-63
2021/04/27 10:27:23;;;;;;;8.63;4.22;;;23.20;27.40;;;;;;6179777;28;80716;-63
2021/04/27 10:30:24;;;;;;;6.93;4.30;;;23.20;27.50;;;;;;6186211;28;80353;-63
2021/04/27 10:33:25;;;;;;;7.50;4.57;;;23.20;27.60;;;;;;6183278;28;81825;-64
2021/04/27 10:36:26;;;;;;;9.30;4.70;;;23.20;27.60;;;;;;6215591;28;82505;-65
2021/04/27 10:39:27;;;;;;;8.18;4.78;;;23.20;27.70;;;;;;6234842;28;80545;-65
2021/04/27 10:42:27;;;;;;;8.18;4.88;;;23.10;27.30;;;;;;6234650;28;80414;-65
2021/04/27 10:45:28;;;;;;;10.95;5.07;;;23.10;26.70;;;;;;6234310;28;81640;-65
2021/04/27 10:48:28;;;;;;;6.57;4.63;;;23.10;26.90;;;;;;6235901;28;82379;-64
2021/04/27 10:51:29;;;;;;;10.13;4.72;;;23.00;26.90;;;;;;6237462;28;81747;-66
2021/04/27 10:54:29;;;;;;;9.38;4.93;;;23.00;26.70;;;;;;6243912;28;80719;-65
2021/04/27 10:57:30;;;;;;;7.20;4.60;;;23.00;26.50;;;;;;6240994;28;80395;-65
2021/04/27 11:00:30;;;;;;;9.18;4.63;;;23.00;26.60;;;;;;6235508;28;80448;-65
2021/04/27 11:03:31;;;;;;;8.38;4.88;;;23.00;26.70;;;;;;6185854;28;80355;-65
2021/04/27 11:06:31;;;;;;;8.15;4.65;;;23.00;26.60;;;;;;6244805;28;80203;-64
2021/04/27 11:09:32;;;;;;;7.13;4.43;;;23.00;26.40;;;;;;6223932;28;81594;-65
2021/04/27 11:12:32;;;;;;;10.75;4.72;;;23.00;26.40;;;;;;6247098;28;81095;-65
2021/04/27 11:15:33;;;;;;;9.07;4.95;;;23.00;26.10;;;;;;6236557;28;81438;-65
2021/04/27 11:18:34;;;;;;;9.43;4.93;;;23.00;25.90;;;;;;6208583;28;82025;-65
2021/04/27 11:21:34;;;;;;;7.68;4.32;;;23.00;26.10;;;;;;6228302;28;80837;-62
2021/04/27 11:24:35;;;;;;;7.97;4.68;;;23.00;26.60;;;;;;6236124;28;80392;-63
2021/04/27 11:27:35;;;;;;;7.55;4.75;;;23.00;25.80;;;;;;6235862;28;80251;-64
2021/04/27 11:30:36;;;;;;;8.68;4.50;;;23.00;25.60;;;;;;6236242;28;80795;-64
2021/04/27 11:33:36;;;;;;;9.93;4.70;;;23.00;25.70;;;;;;6239000;28;81274;-64
2021/04/27 11:36:37;;;;;;;10.93;5.00;;;23.00;25.80;;;;;;6234554;28;80978;-64
2021/04/27 11:39:38;;;;;;;9.40;4.97;;;23.10;26.10;;;;;;6226027;28;80588;-65
2021/04/27 11:42:39;;;;;;;11.07;5.00;;;23.10;25.80;;;;;;6220973;28;80643;-65
2021/04/27 11:45:39;;;;;;;10.95;4.63;;;23.10;25.80;;;;;;6233818;28;80997;-65
2021/04/27 11:48:40;;;;;;;11.18;5.15;;;23.10;26.00;;;;;;6234572;28;83117;-65
2021/04/27 11:51:40;;;;;;;7.32;4.22;;;23.10;25.80;;;;;;6231135;28;80754;-68
2021/04/27 11:54:41;;;;;;;9.07;4.82;;;23.10;25.90;;;;;;6234347;28;81145;-66
2021/04/27 11:57:41;;;;;;;10.23;5.00;;;23.10;26.00;;;;;;6229262;28;81107;-64
2021/04/27 12:00:42;;;;;;;10.35;5.10;;;23.10;26.20;;;;;;6236780;28;81299;-64
2021/04/27 12:03:42;;;;;;;7.63;4.70;;;23.00;26.00;;;;;;6231949;28;81394;-64
2021/04/27 12:06:43;;;;;;;8.05;4.35;;;23.00;25.80;;;;;;6233721;28;80565;-64
2021/04/27 12:09:44;;;;;;;8.73;5.00;;;23.00;25.80;;;;;;6235073;28;83587;-66
2021/04/27 12:12:44;;;;;;;8.25;4.10;;;23.00;25.90;;;;;;6237596;28;80640;-65
2021/04/27 12:15:44;;;;;;;6.68;4.35;;;23.00;25.90;;;;;;6231813;28;81076;-63
2021/04/27 12:18:45;;;;;;;6.07;4.13;;;23.10;26.20;;;;;;6230942;28;80909;-64
2021/04/27 12:21:47;;;;;;;7.47;4.20;;;23.10;26.40;;;;;;6223516;28;83028;-64
2021/04/27 12:24:47;;;;;;;6.18;4.13;;;23.20;26.60;;;;;;6230002;28;81195;-64
2021/04/27 12:27:48;;;;;;;6.43;3.88;;;23.20;27.00;;;;;;6231903;28;80685;-64
2021/04/27 12:30:48;;;;;;;7.03;4.07;;;23.20;27.40;;;;;;6233864;28;80221;-65
2021/04/27 12:33:49;;;;;;;9.85;4.10;;;23.20;27.40;;;;;;6233442;28;80764;-64
2021/04/27 12:36:49;;;;;;;7.63;3.83;;;23.30;27.70;;;;;;6238950;28;80761;-65
2021/04/27 12:39:50;;;;;;;6.22;3.47;;;23.30;27.90;;;;;;6235988;28;81500;-64
2021/04/27 12:42:50;;;;;;;6.40;3.70;;;23.20;28.00;;;;;;6215289;28;81184;-65
2021/04/27 12:46:00;;;;;;;7.72;3.33;;;23.30;28.30;;;;;;6232621;28;80747;-64
2021/04/27 12:49:01;;;;;;;7.55;3.50;;;23.30;27.90;;;;;;6234454;28;80752;-64
2021/04/27 12:52:01;;;;;;;6.75;3.97;;;23.20;27.70;;;;;;6238640;28;80507;-64
2021/04/27 12:55:02;;;;;;;6.07;3.90;;;23.20;27.80;;;;;;6227226;28;81407;-65
2021/04/27 12:58:02;;;;;;;7.10;3.65;;;23.20;27.80;;;;;;6235988;28;80874;-64
2021/04/27 13:01:03;;;;;;;5.57;3.42;;;23.20;28.00;;;;;;6242206;28;80719;-65
2021/04/27 13:04:03;;;;;;;6.03;3.65;;;23.20;28.00;;;;;;6222593;28;81109;-65
2021/04/27 13:07:04;;;;;;;7.40;3.42;;;23.30;28.10;;;;;;6230831;28;80468;-64
2021/04/27 13:10:05;;;;;;;6.30;3.72;;;23.30;28.40;;;;;;6228016;28;85642;-64
2021/04/27 13:13:05;;;;;;;6.80;3.83;;;23.30;28.50;;;;;;6231105;28;81039;-64
2021/04/27 13:16:06;;;;;;;5.65;3.65;;;23.30;29.10;;;;;;6233053;28;80527;-65
2021/04/27 13:19:06;;;;;;;7.20;3.83;;;23.40;28.60;;;;;;6229260;28;80336;-65
2021/04/27 13:22:07;;;;;;;5.05;3.30;;;23.40;28.60;;;;;;6236564;28;80311;-63
2021/04/27 13:25:07;;;;;;;5.63;3.63;;;23.40;28.60;;;;;;6247951;28;80938;-65
2021/04/27 13:28:10;;;;;;;4.97;3.17;;;23.50;28.70;;;;;;6222440;28;80360;-64
2021/04/27 13:31:11;;;;;;;6.93;4.13;;;23.50;28.90;;;;;;6235520;28;80811;-64
2021/04/27 13:34:11;;;;;;;6.63;3.40;;;23.50;28.70;;;;;;6213702;28;80812;-64
2021/04/27 13:37:12;;;;;;;4.50;3.35;;;23.50;28.70;;;;;;6231091;28;80470;-64
2021/04/27 13:40:12;;;;;;;5.57;3.30;;;23.50;28.50;;;;;;6229661;28;80342;-64
2021/04/27 13:43:13;;;;;;;6.72;3.70;;;23.50;28.40;;;;;;6238246;28;80469;-64
2021/04/27 13:46:13;;;;;;;5.63;3.00;;;23.50;28.50;;;;;;6234308;28;80527;-64
2021/04/27 13:49:14;;;;;;;4.25;2.80;;;23.50;28.60;;;;;;6233975;28;83441;-64
2021/04/27 13:52:14;;;;;;;7.88;3.40;;;23.60;28.60;;;;;;6235766;28;80764;-64
2021/04/27 13:55:15;;;;;;;6.53;3.40;;;23.60;28.80;;;;;;6233270;28;81734;-64
2021/04/27 13:58:17;;;;;;;6.93;3.53;;;23.50;28.80;;;;;;6210891;28;81732;-63
2021/04/27 14:01:18;;;;;;;6.70;3.78;;;23.60;29.30;;;;;;6228293;28;83023;-63
2021/04/27 14:04:18;;;;;;;4.43;2.88;;;23.60;29.40;;;;;;6234343;28;81841;-64
2021/04/27 14:07:19;;;;;;;9.68;3.53;;;23.60;29.30;;;;;;6232507;28;80685;-64
2021/04/27 14:10:19;;;;;;;5.93;3.30;;;23.50;29.20;;;;;;6226325;28;80456;-64
2021/04/27 14:13:20;;;;;;;7.47;3.40;;;23.60;29.40;;;;;;6231461;28;81337;-64
2021/04/27 14:16:20;;;;;;;6.82;3.42;;;23.60;29.20;;;;;;6236718;28;81863;-64
2021/04/27 14:19:21;;;;;;;6.55;3.17;;;23.60;29.30;;;;;;6231770;28;81054;-63
2021/04/27 14:22:21;;;;;;;10.05;3.28;;;23.60;29.40;;;;;;6233850;28;80594;-63
2021/04/27 14:25:22;;;;;;;6.95;3.22;;;23.60;29.20;;;;;;6219409;28;81741;-64
2021/04/27 14:28:22;;;;;;;5.97;3.40;;;23.60;28.50;;;;;;6224888;28;80570;-63
2021/04/27 14:31:23;;;;;;;12.35;4.53;;;23.60;28.00;;;;;;6229583;28;81656;-63
2021/04/27 14:34:23;;;;;;;16.13;4.03;;;23.60;27.20;;;;;;6242323;28;81391;-63
2021/04/27 14:37:24;;;;;;;7.03;4.00;;;23.50;27.00;;;;;;6212805;28;83262;-62
2021/04/27 14:40:24;;;;;;;6.93;3.90;;;23.50;26.40;;;;;;6226321;28;80441;-63
2021/04/27 14:43:25;;;;;;;10.07;4.38;;;23.50;26.00;;;;;;6213381;28;83702;-62
2021/04/27 14:46:25;;;;;;;8.73;3.47;;;23.50;25.80;;;;;;6234885;28;80151;-62
2021/04/27 14:49:26;;;;;;;7.43;3.42;;;23.40;27.00;;;;;;6210198;28;80809;-62
2021/04/27 14:52:26;;;;;;;7.43;4.03;;;23.40;26.30;;;;;;6224226;28;81414;-63
2021/04/27 14:55:27;;;;;;;8.07;4.13;;;23.40;26.80;;;;;;6226824;28;83065;-62
2021/04/27 14:58:27;;;;;;;7.18;3.97;;;23.40;26.40;;;;;;6204083;28;81611;-62
2021/04/27 15:01:28;;;;;;;7.85;4.13;;;23.40;26.30;;;;;;6231202;28;80563;-63
2021/04/27 15:04:30;;;;;;;7.88;4.10;;;23.40;26.10;;;;;;6221602;28;80910;-64
2021/04/27 15:07:31;;;;;;;7.60;4.07;;;23.40;26.20;;;;;;6229940;28;81388;-63
2021/04/27 15:10:31;;;;;;;8.85;4.53;;;23.40;26.10;;;;;;6231965;28;80440;-63
2021/04/27 15:13:32;;;;;;;8.13;4.70;;;23.30;26.20;;;;;;6235324;28;81139;-63
2021/04/27 15:16:32;;;;;;;8.15;4.57;;;23.40;26.10;;;;;;6192513;28;80718;-62
2021/04/27 15:19:33;;;;;;;5.90;3.88;;;23.30;26.60;;;;;;6217154;28;80778;-64
2021/04/27 15:22:34;;;;;;;7.80;4.20;;;23.40;26.70;;;;;;6229860;27;80377;-63
2021/04/27 15:25:34;;;;;;;7.70;4.13;;;23.30;26.40;;;;;;6236254;28;81249;-63
2021/04/27 15:28:35;;;;;;;6.97;3.42;;;23.30;27.00;;;;;;6229015;28;80303;-63
2021/04/27 15:31:35;;;;;;;7.60;3.90;;;23.30;27.20;;;;;;6230185;28;81148;-63
2021/04/27 15:34:37;;;;;;;13.60;3.88;;;23.30;27.70;;;;;;6232841;28;81717;-64
2021/04/27 15:37:37;;;;;;;12.15;4.05;;;23.30;28.10;;;;;;6236284;28;81555;-64